Time;durP1;ratioP1;P1;durP2;ratioP2;P2;SDS_P1;SDS_P2;PMS_P1;PMS_P2;Temp;Humidity;BMP_temperature;BMP_pressure;BME280_temperature;BME280_humidity;BME280_pressure;Samples;Min_cycle;Max_cycle;Signal;HPM_P1;HPM_P2
2022/10/26 00:02:24;;;;;;;45.50;23.90;;;;;;;11.37;82.08;100061.92;209359;1307;141378;-75
2022/10/26 00:07:29;;;;;;;16.00;9.20;;;;;;;11.40;82.34;100071.44;209170;1300;141597;-73
2022/10/26 00:12:33;;;;;;;19.70;14.10;;;;;;;11.47;82.44;100069.19;209260;1300;142945;-74
2022/10/26 00:17:37;;;;;;;11.90;9.40;;;;;;;11.55;82.52;100070.50;209354;1301;140769;-74
2022/10/26 00:22:41;;;;;;;11.10;9.40;;;;;;;11.62;82.71;100071.35;209479;1300;140938;-78
2022/10/26 00:27:46;;;;;;;16.00;12.20;;;;;;;11.65;82.54;100074.77;209164;1309;139835;-76
2022/10/26 00:32:51;;;;;;;12.90;10.50;;;;;;;11.67;82.53;100074.17;209215;1300;139929;-77
2022/10/26 00:37:56;;;;;;;15.90;10.50;;;;;;;11.67;82.40;100072.02;209107;1299;142942;-71
2022/10/26 00:43:00;;;;;;;19.20;11.10;;;;;;;11.66;82.43;100076.65;209053;1299;141568;-73
2022/10/26 00:48:17;;;;;;;13.50;9.80;;;;;;;11.63;82.41;100076.91;209211;1300;140337;-72
2022/10/26 00:53:21;;;;;;;12.40;10.70;;;;;;;11.63;82.48;100076.42;208346;1303;140584;-73
2022/10/26 00:58:26;;;;;;;17.30;10.20;;;;;;;11.58;82.41;100069.62;209212;1300;139897;-73
2022/10/26 01:03:32;;;;;;;16.00;10.90;;;;;;;11.52;82.48;100067.02;209301;1300;140602;-78
2022/10/26 01:08:38;;;;;;;19.10;11.90;;;;;;;11.48;82.31;100068.80;209309;1300;141171;-76
2022/10/26 01:13:44;;;;;;;14.50;11.60;;;;;;;11.41;82.15;100077.66;209413;1301;142292;-78
2022/10/26 01:19:01;;;;;;;11.90;10.70;;;;;;;11.34;81.99;100086.93;209512;1300;141146;-77
2022/10/26 01:24:09;;;;;;;25.80;17.00;;;;;;;11.27;82.16;100081.86;209223;1300;139628;-74
2022/10/26 01:29:39;;;;;;;17.10;11.70;;;;;;;11.24;81.98;100083.11;209527;1297;140788;-75
2022/10/26 01:34:56;;;;;;;21.80;11.00;;;;;;;11.15;81.95;100090.38;209682;1298;140420;-77
2022/10/26 01:40:21;;;;;;;11.60;9.40;;;;;;;11.03;81.62;100094.88;209539;1300;243866;-80
2022/10/26 01:45:28;;;;;;;12.50;10.30;;;;;;;10.93;81.55;100090.58;208541;1303;140854;-71
2022/10/26 01:50:34;;;;;;;11.70;9.20;;;;;;;10.83;81.32;100089.19;208789;1291;140180;-73
2022/10/26 01:55:44;;;;;;;19.90;10.60;;;;;;;10.73;80.97;100087.85;209425;1307;141397;-79
2022/10/26 02:01:19;;;;;;;20.60;9.60;;;;;;;10.58;80.84;100088.90;209546;1307;140347;-77
2022/10/26 02:06:43;;;;;;;11.80;9.70;;;;;;;10.40;80.73;100088.05;209556;1300;140884;-78
2022/10/26 02:11:52;;;;;;;18.20;10.70;;;;;;;10.31;81.00;100091.87;209667;1300;140495;-80
2022/10/26 02:17:03;;;;;;;20.00;12.10;;;;;;;10.31;81.01;100094.59;209663;1301;140907;-76
2022/10/26 02:22:14;;;;;;;20.90;13.90;;;;;;;10.29;81.45;100093.61;209463;1300;140716;-75
2022/10/26 02:27:26;;;;;;;17.10;11.60;;;;;;;10.25;81.28;100093.50;209568;1307;140240;-75
2022/10/26 02:32:38;;;;;;;11.40;9.70;;;;;;;10.21;81.65;100086.29;209371;1302;141567;-75
2022/10/26 02:37:46;;;;;;;13.60;10.30;;;;;;;10.23;81.84;100089.39;209327;1300;140394;-76
2022/10/26 02:42:50;;;;;;;;;;;;;;;10.23;81.91;100094.13;209565;1299;141072;-75
2022/10/26 02:47:55;;;;;;;16.80;9.80;;;;;;;10.16;81.73;100097.91;210323;1307;125821;-75
2022/10/26 02:53:04;;;;;;;12.20;9.20;;;;;;;10.03;81.25;100097.75;208634;1300;140594;-75
2022/10/26 02:58:16;;;;;;;12.90;10.00;;;;;;;9.87;81.29;100103.48;209529;1292;139729;-75
2022/10/26 03:03:20;;;;;;;12.40;9.10;;;;;;;9.84;81.62;100107.45;209325;1295;140929;-75
2022/10/26 03:08:24;;;;;;;19.00;11.50;;;;;;;9.89;82.17;100116.41;209563;1301;141022;-74
2022/10/26 03:13:28;;;;;;;16.00;11.50;;;;;;;10.00;82.53;100116.96;209418;1289;139849;-74
2022/10/26 03:18:33;;;;;;;15.90;12.50;;;;;;;10.08;82.72;100126.91;208030;1301;141342;-77
2022/10/26 03:23:36;;;;;;;22.70;14.40;;;;;;;10.13;82.72;100134.14;208340;1297;141425;-76
2022/10/26 03:28:41;;;;;;;23.10;15.70;;;;;;;10.12;82.85;100136.47;209374;1300;141581;-75
2022/10/26 03:33:44;;;;;;;18.30;15.70;;;;;;;10.18;83.18;100135.58;206862;1297;144684;-75
2022/10/26 03:38:48;;;;;;;27.10;14.90;;;;;;;10.25;83.36;100136.09;209547;1301;151090;-76
2022/10/26 03:43:52;;;;;;;21.10;14.30;;;;;;;10.31;83.49;100140.83;209301;1302;141203;-76
2022/10/26 03:48:56;;;;;;;18.30;14.80;;;;;;;10.32;83.52;100140.45;208122;1305;140124;-76
2022/10/26 03:54:00;;;;;;;27.90;15.80;;;;;;;10.36;83.76;100147.90;209489;1288;140745;-76
2022/10/26 03:59:04;;;;;;;19.00;15.00;;;;;;;10.43;83.76;100151.89;209184;1306;140420;-76
2022/10/26 04:04:08;;;;;;;26.10;17.30;;;;;;;10.48;83.58;100152.81;208272;1290;142822;-75
2022/10/26 04:09:11;;;;;;;30.40;15.70;;;;;;;10.51;83.64;100156.32;209231;1293;139931;-71
2022/10/26 04:14:15;;;;;;;19.70;15.00;;;;;;;10.53;83.76;100158.30;209605;1296;142943;-75
2022/10/26 04:19:19;;;;;;;23.70;14.70;;;;;;;10.53;83.76;100157.70;209340;1305;139972;-75
2022/10/26 04:24:23;;;;;;;22.50;16.50;;;;;;;10.56;83.88;100158.15;209321;1301;141830;-75
2022/10/26 04:29:28;;;;;;;22.20;15.50;;;;;;;10.61;83.70;100154.80;209629;1307;141260;-75
2022/10/26 04:34:32;;;;;;;24.80;15.60;;;;;;;10.62;83.69;100156.68;209560;1302;142210;-75
2022/10/26 04:39:37;;;;;;;20.00;14.00;;;;;;;10.63;83.85;100158.52;209607;1299;140566;-75
2022/10/26 04:44:42;;;;;;;26.20;17.20;;;;;;;10.60;83.58;100154.54;209644;1307;139968;-74
2022/10/26 04:49:45;;;;;;;23.10;14.70;;;;;;;10.60;83.71;100156.90;209044;1303;141207;-75
2022/10/26 04:54:49;;;;;;;22.70;16.20;;;;;;;10.53;83.44;100155.89;209607;1302;142235;-75
2022/10/26 04:59:54;;;;;;;22.40;15.10;;;;;;;10.48;83.45;100160.08;209631;1299;139627;-75
2022/10/26 05:04:59;;;;;;;19.10;14.30;;;;;;;10.51;83.92;100157.96;208524;1300;141669;-74
2022/10/26 05:10:11;;;;;;;23.90;15.50;;;;;;;10.56;84.04;100155.89;208706;1301;247059;-75
2022/10/26 05:15:16;;;;;;;19.00;12.90;;;;;;;10.55;84.18;100158.93;209450;1307;139723;-75
2022/10/26 05:20:28;;;;;;;;;;;;;;;10.50;83.97;100161.30;209675;1294;140452;-75
2022/10/26 05:25:36;;;;;;;13.40;10.20;;;;;;;10.44;83.93;100164.11;207537;1290;127739;-74
2022/10/26 05:30:42;;;;;;;13.80;10.50;;;;;;;10.34;83.88;100171.58;209575;1292;152146;-75
2022/10/26 05:35:46;;;;;;;13.30;10.10;;;;;;;10.31;83.86;100176.48;209567;1305;140377;-75
2022/10/26 05:40:52;;;;;;;11.30;8.50;;;;;;;10.30;84.17;100181.37;209954;1289;141070;-75
2022/10/26 05:45:57;;;;;;;12.40;9.40;;;;;;;10.31;84.06;100189.39;208418;1303;246843;-75
2022/10/26 05:51:01;;;;;;;13.20;9.70;;;;;;;10.27;83.98;100194.92;208762;1295;140845;-75
2022/10/26 05:56:34;;;;;;;11.40;9.90;;;;;;;10.23;84.12;100197.63;209920;1298;144311;-75
2022/10/26 06:01:51;;;;;;;17.60;10.50;;;;;;;10.27;84.25;100202.59;209962;1298;139650;-75
2022/10/26 06:06:58;;;;;;;12.50;10.40;;;;;;;10.37;84.61;100210.98;209841;1301;139898;-75
2022/10/26 06:12:03;;;;;;;13.80;11.40;;;;;;;10.47;84.77;100210.15;209047;1304;142793;-75
2022/10/26 06:17:32;;;;;;;9.70;7.50;;;;;;;10.55;84.74;100210.70;209897;1298;140683;-75
2022/10/26 06:22:37;;;;;;;17.00;12.10;;;;;;;10.58;84.42;100216.11;209875;1303;139758;-75
2022/10/26 06:27:53;;;;;;;12.60;9.50;;;;;;;10.57;84.32;100219.94;209809;1297;140890;-75
2022/10/26 06:33:00;;;;;;;13.30;10.70;;;;;;;10.60;84.51;100220.73;209999;1302;140654;-73
2022/10/26 06:38:21;;;;;;;11.80;9.50;;;;;;;10.67;84.63;100222.58;209919;1305;223920;-76
2022/10/26 06:43:34;;;;;;;15.30;11.30;;;;;;;10.76;84.58;100226.39;209744;1298;141108;-75
2022/10/26 06:48:59;;;;;;;17.30;11.50;;;;;;;10.87;85.00;100229.59;209897;1298;140351;-72
2022/10/26 06:54:32;;;;;;;12.80;9.90;;;;;;;10.98;84.88;100241.64;209992;1297;139774;-75
2022/10/26 06:59:39;;;;;;;9.60;7.50;;;;;;;11.00;84.63;100241.59;209830;1296;140241;-75
2022/10/26 07:04:46;;;;;;;16.80;11.40;;;;;;;10.96;84.17;100243.19;207185;1291;139859;-74
2022/10/26 07:09:51;;;;;;;13.30;9.40;;;;;;;10.92;84.15;100241.10;209402;1297;141997;-73
2022/10/26 07:14:55;;;;;;;8.70;5.90;;;;;;;10.88;84.38;100248.08;209891;1291;140624;-75
2022/10/26 07:20:00;;;;;;;9.20;7.70;;;;;;;10.83;84.10;100252.52;209866;1299;140678;-74
2022/10/26 07:25:06;;;;;;;12.90;8.50;;;;;;;10.78;84.00;100253.69;209789;1297;140421;-73
2022/10/26 07:36:52;;;;;;;11.90;8.90;;;;;;;11.02;84.44;100276.63;206872;1296;364639;-75
2022/10/26 07:41:58;;;;;;;13.80;9.30;;;;;;;11.11;84.31;100278.44;209280;1298;141155;-76
2022/10/26 07:47:05;;;;;;;12.40;9.20;;;;;;;11.16;84.23;100274.36;209860;1297;139703;-76
2022/10/26 07:52:11;;;;;;;9.80;8.60;;;;;;;11.11;83.78;100269.41;209852;1297;141051;-75
2022/10/26 07:57:17;;;;;;;8.30;7.40;;;;;;;11.05;83.52;100277.23;209319;1298;141398;-75
2022/10/26 08:02:23;;;;;;;12.40;9.80;;;;;;;11.07;83.59;100280.24;209319;1305;142990;-73
2022/10/26 08:07:27;;;;;;;10.20;8.00;;;;;;;11.19;84.05;100281.46;209708;1298;142582;-74
2022/10/26 08:12:35;;;;;;;12.90;9.20;;;;;;;11.32;83.83;100285.56;209648;1296;161857;-74
2022/10/26 08:17:40;;;;;;;14.80;10.40;;;;;;;11.35;83.76;100286.23;209770;1291;140301;-73
2022/10/26 08:22:44;;;;;;;15.70;11.10;;;;;;;11.57;84.23;100286.92;209629;1292;139986;-73
2022/10/26 08:27:50;;;;;;;14.50;10.50;;;;;;;11.79;83.86;100284.20;209799;1297;140631;-74
2022/10/26 08:32:59;;;;;;;11.80;9.30;;;;;;;11.84;83.83;100285.33;209901;1297;139749;-74
2022/10/26 08:38:04;;;;;;;23.30;11.70;;;;;;;11.94;83.95;100287.04;210084;1289;140786;-73
2022/10/26 08:43:29;;;;;;;13.50;10.60;;;;;;;12.13;84.10;100287.33;209778;1298;225536;-74
2022/10/26 08:48:58;;;;;;;16.50;10.00;;;;;;;12.35;84.23;100293.99;210025;1304;140414;-74
2022/10/26 08:54:13;;;;;;;14.60;12.00;;;;;;;12.58;83.90;100297.66;209764;1297;140461;-74
2022/10/26 08:59:49;;;;;;;13.30;10.60;;;;;;;12.72;83.53;100304.39;209836;1296;140443;-74
2022/10/26 09:04:57;;;;;;;11.40;9.80;;;;;;;12.84;83.13;100305.43;209369;1304;140777;-74
2022/10/26 09:10:10;;;;;;;10.20;9.00;;;;;;;12.87;83.10;100308.87;209973;1297;140178;-73
2022/10/26 09:15:37;;;;;;;16.20;11.20;;;;;;;12.91;82.83;100317.08;209860;1297;141179;-74
2022/10/26 09:20:52;;;;;;;12.20;10.10;;;;;;;12.92;82.36;100320.80;209882;1296;141420;-75
2022/10/26 09:26:01;;;;;;;11.70;9.40;;;;;;;12.91;82.75;100334.48;208869;1297;142460;-74
2022/10/26 09:31:12;;;;;;;14.60;10.70;;;;;;;12.99;82.90;100332.95;208710;1289;139910;-72
2022/10/26 09:36:20;;;;;;;11.20;9.00;;;;;;;13.06;82.75;100337.42;209969;1297;140668;-74
2022/10/26 09:41:25;;;;;;;17.80;13.60;;;;;;;13.14;83.07;100339.70;209881;1297;140003;-74
2022/10/26 09:46:47;;;;;;;16.30;13.10;;;;;;;13.26;82.83;100340.91;209201;1297;141012;-74
2022/10/26 09:51:52;;;;;;;;;;;;;;;13.39;82.68;100345.84;209542;1289;140588;-74
2022/10/26 09:57:00;;;;;;;15.30;11.80;;;;;;;13.32;82.33;100348.37;210778;1297;125821;-74
2022/10/26 10:02:34;;;;;;;18.50;12.90;;;;;;;13.42;82.64;100349.00;209247;1303;140748;-74
2022/10/26 10:07:40;;;;;;;20.40;12.50;;;;;;;13.60;82.72;100346.30;209903;1297;139961;-74
2022/10/26 10:12:45;;;;;;;18.80;13.70;;;;;;;13.75;82.60;100347.05;209164;1302;140762;-75
2022/10/26 10:17:54;;;;;;;18.60;13.60;;;;;;;14.02;82.46;100340.23;209606;1300;139748;-74
2022/10/26 10:23:05;;;;;;;16.30;10.60;;;;;;;14.29;82.39;100342.54;209918;1298;140548;-74
2022/10/26 10:28:23;;;;;;;13.30;8.80;;;;;;;14.27;81.36;100342.09;209827;1298;141050;-73
2022/10/26 10:33:35;;;;;;;15.80;13.60;;;;;;;14.19;81.38;100335.42;209595;1296;141489;-73
2022/10/26 10:38:43;;;;;;;17.20;12.10;;;;;;;14.43;81.69;100333.08;209894;1304;140305;-73
2022/10/26 10:44:19;;;;;;;15.80;13.10;;;;;;;14.73;81.83;100330.08;209774;1297;141685;-73
2022/10/26 10:49:27;;;;;;;22.60;13.30;;;;;;;15.05;81.37;100327.39;209921;1298;140324;-73
2022/10/26 10:54:38;;;;;;;15.00;12.70;;;;;;;15.37;80.90;100324.11;209863;1297;141125;-73
2022/10/26 10:59:48;;;;;;;15.80;12.20;;;;;;;15.38;79.97;100318.27;209890;1287;141755;-74
2022/10/26 11:05:32;;;;;;;16.60;12.80;;;;;;;15.51;79.93;100321.43;209979;1291;140059;-74
2022/10/26 11:10:51;;;;;;;17.80;13.70;;;;;;;15.50;79.00;100320.73;209009;1305;1204835;-74
2022/10/26 11:16:04;;;;;;;14.80;13.40;;;;;;;15.61;79.74;100314.88;208289;1292;140997;-72
2022/10/26 11:21:37;;;;;;;15.40;12.20;;;;;;;15.95;79.72;100318.80;209964;1290;139975;-73
2022/10/26 11:26:57;;;;;;;14.80;12.90;;;;;;;16.05;78.76;100316.33;208733;1299;140147;-73
2022/10/26 11:32:23;;;;;;;20.10;12.50;;;;;;;16.21;78.89;100316.06;208833;1297;141237;-73
2022/10/26 11:38:05;;;;;;;19.40;12.70;;;;;;;16.40;78.51;100314.32;209956;1286;141353;-73
2022/10/26 11:43:32;;;;;;;12.50;10.40;;;;;;;16.67;78.58;100316.49;209527;1303;140480;-72
2022/10/26 11:48:46;;;;;;;12.60;11.30;;;;;;;16.84;77.93;100324.23;209585;1297;140841;-73
2022/10/26 11:53:51;;;;;;;11.80;10.00;;;;;;;16.91;77.76;100321.20;209624;1300;140428;-74
2022/10/26 11:58:58;;;;;;;10.70;9.60;;;;;;;17.01;77.30;100322.28;209913;1290;140649;-74
2022/10/26 12:04:02;;;;;;;12.70;9.90;;;;;;;16.89;77.06;100323.56;209838;1302;139573;-74
2022/10/26 12:09:18;;;;;;;13.60;9.40;;;;;;;16.75;76.73;100321.79;208383;1290;139745;-71
2022/10/26 12:14:38;;;;;;;14.30;8.70;;;;;;;16.76;76.51;100326.05;209694;1290;140104;-75
2022/10/26 12:20:23;;;;;;;13.10;8.00;;;;;;;16.71;76.30;100323.64;209768;1297;143119;-73
2022/10/26 12:25:28;;;;;;;10.00;6.50;;;;;;;16.75;76.17;100323.13;209884;1301;218784;-72
2022/10/26 12:30:35;;;;;;;8.70;7.70;;;;;;;16.90;75.85;100322.23;209701;1297;139676;-73
2022/10/26 12:35:44;;;;;;;10.90;6.90;;;;;;;16.79;75.59;100328.75;209706;1300;140893;-75
2022/10/26 12:41:21;;;;;;;6.40;5.80;;;;;;;16.62;75.24;100325.77;210004;1297;141394;-74
2022/10/26 12:46:25;;;;;;;6.90;5.30;;;;;;;16.46;75.20;100327.23;209946;1304;223861;-73
2022/10/26 12:51:29;;;;;;;9.30;5.50;;;;;;;16.37;75.29;100326.63;209795;1297;139707;-74
2022/10/26 12:56:55;;;;;;;12.90;5.50;;;;;;;16.33;75.53;100326.38;209976;1297;247655;-74
2022/10/26 13:02:18;;;;;;;6.70;6.10;;;;;;;16.28;75.49;100322.83;209870;1297;140086;-75
2022/10/26 13:07:26;;;;;;;6.80;5.30;;;;;;;16.24;75.51;100327.00;210031;1290;140084;-75
2022/10/26 13:12:57;;;;;;;10.40;5.50;;;;;;;16.17;75.17;100324.33;209789;1297;139851;-72
2022/10/26 13:18:17;;;;;;;5.40;3.90;;;;;;;16.06;74.76;100325.09;209815;1297;141860;-69
2022/10/26 13:23:26;;;;;;;5.70;4.50;;;;;;;15.99;74.78;100318.13;209833;1296;140143;-77
2022/10/26 13:28:43;;;;;;;4.20;3.30;;;;;;;16.12;74.92;100316.85;209829;1290;139121;-72
2022/10/26 13:33:51;;;;;;;7.50;3.60;;;;;;;16.36;74.57;100319.09;210033;1297;139896;-74
2022/10/26 13:39:00;;;;;;;8.60;3.10;;;;;;;16.53;73.78;100318.21;209970;1297;140504;-75
2022/10/26 13:44:18;;;;;;;4.40;3.30;;;;;;;16.56;73.20;100318.39;209772;1305;141934;-75
2022/10/26 13:49:35;;;;;;;7.40;4.10;;;;;;;16.64;73.01;100321.59;208064;1298;141028;-77
2022/10/26 13:54:48;;;;;;;11.20;5.00;;;;;;;16.71;72.82;100319.65;209948;1297;139644;-78
2022/10/26 13:59:55;;;;;;;6.40;3.80;;;;;;;16.71;72.56;100325.09;209687;1302;140906;-76
2022/10/26 14:05:12;;;;;;;7.40;3.70;;;;;;;16.76;72.47;100327.29;209883;1305;140360;-76
2022/10/26 14:10:34;;;;;;;9.50;4.60;;;;;;;16.79;72.28;100328.55;208303;1287;140894;-69
2022/10/26 14:15:45;;;;;;;10.80;4.30;;;;;;;16.77;72.12;100323.36;208415;1297;139383;-75
2022/10/26 14:21:02;;;;;;;7.50;4.50;;;;;;;16.71;71.91;100321.38;210014;1296;140242;-75
2022/10/26 14:26:17;;;;;;;;;;;;;;;16.61;71.63;100319.68;209283;1303;140640;-75
2022/10/26 14:31:29;;;;;;;5.20;4.30;;;;;;;16.51;71.57;100322.30;210370;1297;127155;-71
2022/10/26 14:36:44;;;;;;;7.70;3.90;;;;;;;16.42;71.57;100320.58;209833;1298;161522;-73
2022/10/26 14:41:52;;;;;;;7.80;3.30;;;;;;;16.28;71.69;100318.58;209943;1305;141351;-73
2022/10/26 14:46:56;;;;;;;4.60;3.00;;;;;;;16.10;71.64;100330.55;209662;1296;141159;-73
2022/10/26 14:52:05;;;;;;;10.30;3.10;;;;;;;15.90;71.67;100333.11;209898;1304;139871;-74
2022/10/26 14:57:29;;;;;;;9.80;3.20;;;;;;;15.71;71.80;100334.50;209923;1305;141758;-74
2022/10/26 15:02:34;;;;;;;21.50;3.60;;;;;;;15.50;71.88;100337.33;209838;1297;139839;-76
2022/10/26 15:07:39;;;;;;;13.10;3.80;;;;;;;15.28;72.13;100347.00;209969;1294;140430;-75
2022/10/26 15:12:43;;;;;;;3.00;2.70;;;;;;;15.04;72.20;100345.58;209897;1299;139678;-71
2022/10/26 15:17:55;;;;;;;8.10;2.80;;;;;;;14.79;72.37;100348.04;209891;1297;140633;-75
2022/10/26 15:23:01;;;;;;;6.30;3.20;;;;;;;14.55;72.43;100344.48;209665;1298;140393;-74
2022/10/26 15:28:31;;;;;;;4.00;3.50;;;;;;;14.30;72.62;100342.02;209655;1295;140511;-77
2022/10/26 15:33:41;;;;;;;6.90;4.00;;;;;;;14.04;72.99;100342.89;209932;1300;139680;-80
2022/10/26 15:38:47;;;;;;;5.30;3.40;;;;;;;13.81;73.08;100352.23;209885;1298;222441;-77
2022/10/26 15:43:55;;;;;;;;;;;;;;;13.60;73.20;100356.88;210081;1289;141087;-78
2022/10/26 15:49:06;;;;;;;3.30;3.00;;;;;;;13.38;73.35;100363.16;210373;1296;128847;-79
2022/10/26 15:54:11;;;;;;;5.90;3.20;;;;;;;13.15;73.40;100368.73;209880;1305;139611;-82
2022/10/26 15:59:18;;;;;;;5.60;2.70;;;;;;;12.92;73.41;100377.65;209940;1297;141050;-80
2022/10/26 16:04:25;;;;;;;9.10;4.30;;;;;;;12.75;73.72;100376.52;209650;1295;141192;-80
2022/10/26 16:09:30;;;;;;;7.00;4.20;;;;;;;12.63;73.89;100378.31;208781;1290;140616;-81
2022/10/26 16:14:33;;;;;;;7.20;3.60;;;;;;;12.44;73.77;100377.52;210115;1299;140460;-82
2022/10/26 16:19:59;;;;;;;12.70;5.40;;;;;;;12.24;73.93;100378.63;210002;1291;140510;-81
2022/10/26 16:25:09;;;;;;;5.80;4.80;;;;;;;12.05;73.69;100382.73;209976;1297;140109;-77
2022/10/26 16:30:14;;;;;;;8.00;4.90;;;;;;;11.87;74.10;100387.19;208485;1294;141481;-77
2022/10/26 16:35:22;;;;;;;21.00;7.20;;;;;;;11.72;74.17;100389.18;209692;1297;139899;-78
2022/10/26 16:40:28;;;;;;;15.60;9.50;;;;;;;11.56;74.32;100394.66;209581;1303;141340;-77
2022/10/26 16:45:33;;;;;;;15.80;9.40;;;;;;;11.38;74.43;100401.33;209204;1299;249041;-78
2022/10/26 16:50:38;;;;;;;19.30;9.70;;;;;;;11.16;74.46;100401.90;208200;1290;140681;-74
2022/10/26 16:55:45;;;;;;;21.90;11.50;;;;;;;11.04;74.67;100405.19;209729;1293;142133;-75
2022/10/26 17:00:53;;;;;;;21.40;10.70;;;;;;;10.94;74.85;100408.92;209571;1283;142554;-71
2022/10/26 17:06:03;;;;;;;20.60;13.10;;;;;;;10.70;74.85;100418.16;209664;1300;140424;-72
2022/10/26 17:11:13;;;;;;;25.00;13.30;;;;;;;10.51;75.49;100420.20;209720;1300;141133;-71
2022/10/26 17:16:21;;;;;;;24.50;14.10;;;;;;;10.45;75.82;100428.69;209762;1305;139904;-71
2022/10/26 17:21:30;;;;;;;30.10;16.90;;;;;;;10.44;75.90;100434.48;209565;1297;140767;-70
2022/10/26 17:26:40;;;;;;;23.10;14.60;;;;;;;10.26;75.98;100435.98;209870;1297;141432;-70
2022/10/26 17:31:44;;;;;;;22.50;12.70;;;;;;;10.15;76.57;100440.31;209760;1304;140866;-71
2022/10/26 17:36:49;;;;;;;17.80;11.90;;;;;;;10.20;76.94;100438.34;209745;1297;142624;-70
2022/10/26 17:41:54;;;;;;;22.20;11.10;;;;;;;10.22;77.12;100442.73;209672;1291;141270;-71
2022/10/26 17:46:58;;;;;;;24.10;12.70;;;;;;;10.27;77.29;100444.59;209756;1298;152231;-70
2022/10/26 17:52:06;;;;;;;22.50;14.50;;;;;;;10.18;76.92;100451.66;209581;1296;140288;-71
2022/10/26 17:57:11;;;;;;;16.60;11.50;;;;;;;10.09;77.43;100453.27;209649;1305;140451;-72
2022/10/26 18:02:15;;;;;;;32.00;18.60;;;;;;;10.05;77.26;100456.13;209732;1300;140405;-72
2022/10/26 18:07:20;;;;;;;34.30;20.70;;;;;;;10.01;77.02;100458.52;209733;1297;140674;-77
2022/10/26 18:12:25;;;;;;;44.90;23.20;;;;;;;9.83;76.99;100462.77;209777;1297;142083;-70
2022/10/26 18:17:31;;;;;;;35.80;21.40;;;;;;;9.74;77.14;100470.09;208671;1299;141528;-69
2022/10/26 18:22:37;;;;;;;32.60;16.40;;;;;;;9.65;76.91;100477.65;208348;1298;141553;-75
2022/10/26 18:27:43;;;;;;;39.50;21.80;;;;;;;9.50;76.91;100482.36;209643;1297;141472;-76
2022/10/26 18:32:48;;;;;;;37.90;21.40;;;;;;;9.34;77.05;100483.84;209198;1299;140153;-75
2022/10/26 18:37:55;;;;;;;40.00;22.10;;;;;;;9.12;77.03;100487.73;208818;1303;139972;-74
2022/10/26 18:43:06;;;;;;;45.00;22.30;;;;;;;9.00;77.48;100480.20;209862;1297;224651;-76
2022/10/26 18:48:11;;;;;;;45.60;24.10;;;;;;;9.00;77.74;100485.85;209811;1303;162113;-70
2022/10/26 18:53:16;;;;;;;47.40;25.80;;;;;;;8.98;77.81;100483.94;209807;1298;140317;-74
2022/10/26 18:58:22;;;;;;;49.70;29.30;;;;;;;8.94;77.84;100483.61;209811;1297;140617;-72
2022/10/26 19:03:27;;;;;;;52.10;26.50;;;;;;;8.85;77.85;100491.15;207984;1298;140773;-75
2022/10/26 19:08:33;;;;;;;57.10;28.70;;;;;;;8.73;77.78;100495.23;209922;1297;141355;-71
2022/10/26 19:13:40;;;;;;;39.30;24.80;;;;;;;8.59;77.91;100499.84;209898;1289;141060;-74
2022/10/26 19:18:46;;;;;;;;;;;;;;;8.50;77.98;100504.63;209924;1297;140608;-76
2022/10/26 19:23:56;;;;;;;52.70;33.80;;;;;;;8.37;77.92;100509.33;210583;1297;125830;-77
2022/10/26 19:29:05;;;;;;;53.60;32.90;;;;;;;8.25;77.89;100520.48;209765;1305;151845;-75
2022/10/26 19:34:09;;;;;;;;;;;;;;;8.22;78.21;100522.11;209813;1291;141344;-77
2022/10/26 19:39:15;;;;;;;34.60;23.30;;;;;;;8.20;78.21;100525.74;210597;1305;128167;-75
2022/10/26 19:44:21;;;;;;;28.50;19.40;;;;;;;8.13;78.33;100535.44;209998;1294;140106;-75
2022/10/26 19:49:28;;;;;;;31.90;20.20;;;;;;;8.01;78.17;100538.65;209889;1305;139505;-74
2022/10/26 19:54:35;;;;;;;38.80;23.00;;;;;;;7.92;78.46;100546.51;209969;1302;140344;-79
2022/10/26 19:59:43;;;;;;;42.60;24.00;;;;;;;7.87;78.83;100546.92;209950;1297;143041;-77
2022/10/26 20:04:49;;;;;;;36.60;19.70;;;;;;;7.87;79.04;100546.82;209680;1298;141246;-76
2022/10/26 20:09:58;;;;;;;39.20;26.90;;;;;;;7.89;79.04;100550.46;209870;1304;246751;-74
2022/10/26 20:15:03;;;;;;;51.70;33.20;;;;;;;7.86;78.53;100557.84;209323;1295;139767;-73
2022/10/26 20:20:09;;;;;;;67.70;41.90;;;;;;;7.71;78.59;100559.17;209825;1297;139776;-75
2022/10/26 20:25:17;;;;;;;78.10;43.80;;;;;;;7.54;78.53;100560.39;209464;1298;140845;-77
2022/10/26 20:30:24;;;;;;;63.80;41.30;;;;;;;7.43;78.96;100563.86;209868;1298;140838;-77
2022/10/26 20:35:31;;;;;;;63.90;40.00;;;;;;;7.45;79.39;100568.48;209761;1296;140750;-80
2022/10/26 20:40:36;;;;;;;62.60;38.40;;;;;;;7.48;79.05;100574.63;209812;1304;140359;-76
2022/10/26 20:45:41;;;;;;;71.40;42.60;;;;;;;7.45;79.01;100576.11;209618;1301;139094;-78
2022/10/26 20:50:55;;;;;;;60.70;38.50;;;;;;;7.44;78.99;100579.74;209832;1297;139382;-77
2022/10/26 20:56:14;;;;;;;50.50;33.10;;;;;;;7.42;79.01;100583.23;209642;1300;140632;-76
2022/10/26 21:01:25;;;;;;;55.90;35.00;;;;;;;7.35;78.85;100586.02;209987;1300;140720;-70
2022/10/26 21:06:38;;;;;;;72.80;41.10;;;;;;;7.32;79.31;100586.64;208343;1295;140266;-71
2022/10/26 21:11:44;;;;;;;51.20;35.70;;;;;;;7.24;79.10;100584.95;209767;1297;139953;-73
2022/10/26 21:16:49;;;;;;;53.20;37.90;;;;;;;7.04;78.41;100576.02;209768;1298;140490;-75
2022/10/26 21:21:56;;;;;;;67.50;38.10;;;;;;;6.93;78.93;100575.06;209658;1298;140953;-75
2022/10/26 21:27:01;;;;;;;51.60;37.70;;;;;;;6.93;79.50;100582.12;209928;1305;245433;-77
2022/10/26 21:32:05;;;;;;;52.50;35.10;;;;;;;7.01;79.93;100582.73;209780;1302;140196;-79
2022/10/26 21:37:10;;;;;;;47.50;30.90;;;;;;;7.01;79.74;100588.06;209837;1290;140612;-75
2022/10/26 21:42:13;;;;;;;42.50;32.00;;;;;;;6.99;79.31;100602.61;209671;1301;141111;-74
2022/10/26 21:47:17;;;;;;;43.60;33.10;;;;;;;6.95;79.29;100601.11;210187;1303;141423;-81
2022/10/26 21:52:21;;;;;;;45.10;27.20;;;;;;;6.84;79.51;100602.34;210010;1296;141730;-77
2022/10/26 21:57:25;;;;;;;42.50;29.60;;;;;;;6.70;79.42;100595.02;210083;1294;140096;-71
2022/10/26 22:02:28;;;;;;;40.10;30.70;;;;;;;6.61;79.79;100590.36;209739;1294;140437;-76
2022/10/26 22:07:33;;;;;;;42.70;30.00;;;;;;;6.61;79.66;100588.65;209364;1297;140102;-73
2022/10/26 22:12:37;;;;;;;41.90;29.10;;;;;;;6.66;80.01;100588.85;209828;1291;139675;-76
2022/10/26 22:17:41;;;;;;;34.70;22.00;;;;;;;6.63;79.89;100582.48;209979;1298;140673;-79
2022/10/26 22:22:45;;;;;;;47.20;30.40;;;;;;;6.52;79.94;100575.10;209845;1298;224834;-75
2022/10/26 22:27:49;;;;;;;55.30;30.70;;;;;;;6.46;79.90;100571.38;208919;1294;141682;-69
2022/10/26 22:32:52;;;;;;;72.50;31.00;;;;;;;6.51;80.65;100577.63;209936;1287;141930;-70
2022/10/26 22:37:56;;;;;;;50.80;31.50;;;;;;;6.56;80.29;100580.77;208157;1292;139814;-73
2022/10/26 22:43:00;;;;;;;55.90;35.70;;;;;;;6.50;80.42;100581.31;209915;1290;139979;-70
2022/10/26 22:48:04;;;;;;;45.60;34.60;;;;;;;6.43;80.26;100585.08;209348;1298;140723;-73
2022/10/26 22:53:09;;;;;;;58.70;30.40;;;;;;;6.38;80.36;100590.54;209846;1291;140675;-67
2022/10/26 22:58:12;;;;;;;44.00;30.10;;;;;;;6.34;80.38;100598.06;209782;1303;140846;-73
2022/10/26 23:03:16;;;;;;;51.90;30.90;;;;;;;6.32;80.65;100602.04;209995;1296;141176;-69
2022/10/26 23:08:21;;;;;;;49.30;30.30;;;;;;;6.31;80.26;100602.88;209655;1298;479294;-71
2022/10/26 23:13:27;;;;;;;50.20;29.90;;;;;;;6.27;80.54;100600.36;209935;1304;140680;-72
2022/10/26 23:18:32;;;;;;;48.10;31.20;;;;;;;6.26;80.36;100604.39;209723;1297;139971;-74